Time;durP1;ratioP1;P1;durP2;ratioP2;P2;SDS_P1;SDS_P2;PMS_P1;PMS_P2;Temp;Humidity;BMP_temperature;BMP_pressure;BME280_temperature;BME280_humidity;BME280_pressure;Samples;Min_cycle;Max_cycle;Signal;HPM_P1;HPM_P2
2023/06/18 00:00:37;;;;;;;8.13;6.53;;;;;;;16.41;54.23;98397.31;4938056;29;20244;-62
2023/06/18 00:03:03;;;;;;;11.23;6.50;;;;;;;16.33;54.28;98401.72;4937503;29;20231;-62
2023/06/18 00:05:30;;;;;;;7.67;5.93;;;;;;;16.29;54.86;98397.03;4940955;28;20292;-62
2023/06/18 00:07:58;;;;;;;7.67;5.93;;;;;;;16.20;54.20;98396.38;4937063;28;20278;-62
2023/06/18 00:10:25;;;;;;;9.00;6.30;;;;;;;16.22;54.40;98399.63;4939137;28;20752;-62
2023/06/18 00:12:51;;;;;;;9.37;6.07;;;;;;;16.22;54.41;98399.63;4893310;29;20347;-62
2023/06/18 00:15:18;;;;;;;9.23;6.10;;;;;;;16.21;53.81;98395.34;4923219;28;20244;-62
2023/06/18 00:17:45;;;;;;;8.50;5.80;;;;;;;16.19;53.59;98392.94;4938871;29;20601;-62
2023/06/18 00:20:36;;;;;;;7.83;5.47;;;;;;;16.24;53.74;98397.59;4936406;29;20752;-62
2023/06/18 00:23:04;;;;;;;6.93;6.03;;;;;;;16.33;53.01;98393.00;4934177;29;20236;-63
2023/06/18 00:25:31;;;;;;;7.43;5.70;;;;;;;16.32;53.42;98392.19;4938357;28;20713;-62
2023/06/18 00:27:57;;;;;;;8.87;6.00;;;;;;;16.34;53.57;98389.38;4936527;29;20709;-62
2023/06/18 00:30:24;;;;;;;7.23;6.03;;;;;;;16.30;53.18;98396.03;4920106;29;20646;-62
2023/06/18 00:32:52;;;;;;;8.20;5.50;;;;;;;16.30;53.65;98393.41;4940434;28;20224;-62
2023/06/18 00:35:18;;;;;;;8.93;6.07;;;;;;;16.22;53.87;98383.81;4938193;29;20235;-62
2023/06/18 00:37:45;;;;;;;6.80;5.63;;;;;;;16.22;52.54;98381.19;4929754;28;20228;-62
2023/06/18 00:40:38;;;;;;;7.87;5.70;;;;;;;16.18;54.22;98377.31;4935723;28;20258;-62
2023/06/18 00:43:05;;;;;;;7.10;5.67;;;;;;;16.12;55.32;98373.66;4918519;29;20246;-62
2023/06/18 00:45:32;;;;;;;6.97;5.20;;;;;;;16.20;53.37;98364.75;4937279;28;20233;-62
2023/06/18 00:47:58;;;;;;;7.30;5.47;;;;;;;16.16;53.47;98364.34;4936432;29;20293;-62
2023/06/18 00:50:26;;;;;;;7.80;5.93;;;;;;;16.29;53.22;98366.25;4924787;29;20582;-62
2023/06/18 00:52:59;;;;;;;10.00;5.00;;;;;;;16.29;52.51;98365.44;4933690;29;20230;-62
2023/06/18 00:55:28;;;;;;;8.80;6.07;;;;;;;16.26;52.92;98369.25;4938972;29;20319;-62
2023/06/18 00:58:02;;;;;;;10.67;5.63;;;;;;;16.27;51.96;98362.97;4935732;28;20252;-62
2023/06/18 01:00:30;;;;;;;6.40;5.30;;;;;;;16.30;52.74;98359.16;4924479;29;20229;-62
2023/06/18 01:03:00;;;;;;;6.67;5.70;;;;;;;16.35;52.50;98364.66;4920952;29;20249;-62
2023/06/18 01:05:29;;;;;;;7.93;5.87;;;;;;;16.27;52.38;98362.19;4936735;29;20225;-62
2023/06/18 01:07:57;;;;;;;7.53;5.70;;;;;;;16.30;51.85;98359.16;4936371;28;20225;-62
2023/06/18 01:10:29;;;;;;;8.00;5.47;;;;;;;16.38;51.41;98365.06;4923674;29;20247;-62
2023/06/18 01:12:58;;;;;;;9.47;5.60;;;;;;;16.30;52.21;98365.22;4918556;29;20225;-62
2023/06/18 01:15:27;;;;;;;7.73;5.37;;;;;;;16.32;51.98;98365.84;4920687;28;20217;-62
2023/06/18 01:17:56;;;;;;;9.23;5.47;;;;;;;16.34;52.21;98368.31;4933209;29;20723;-62
2023/06/18 01:20:26;;;;;;;7.30;5.87;;;;;;;16.38;50.93;98364.28;4934364;28;20243;-62
2023/06/18 01:22:59;;;;;;;6.50;5.80;;;;;;;16.49;50.79;98368.97;4919829;29;20239;-62
2023/06/18 01:25:27;;;;;;;8.90;5.63;;;;;;;16.60;52.25;98370.25;4920797;29;20239;-62
2023/06/18 01:27:56;;;;;;;7.13;5.80;;;;;;;16.49;52.38;98362.91;4921397;29;20234;-62
2023/06/18 01:30:24;;;;;;;9.93;6.00;;;;;;;16.45;53.36;98365.09;4921444;29;20234;-62
2023/06/18 01:32:54;;;;;;;6.83;5.13;;;;;;;16.36;53.79;98361.03;4919457;29;20222;-62
2023/06/18 01:35:21;;;;;;;9.77;5.50;;;;;;;16.23;53.33;98356.47;4917083;29;20237;-62
2023/06/18 01:38:11;;;;;;;9.00;6.00;;;;;;;16.28;53.47;98364.59;4928385;29;20718;-62
2023/06/18 01:40:45;;;;;;;7.93;5.67;;;;;;;16.14;53.98;98365.53;4920947;29;20241;-62
2023/06/18 01:43:19;;;;;;;7.57;5.83;;;;;;;16.10;53.11;98367.75;4920071;29;20644;-62
2023/06/18 01:45:51;;;;;;;7.87;5.53;;;;;;;16.07;53.58;98361.03;4921672;29;20613;-62
2023/06/18 01:48:21;;;;;;;6.57;5.63;;;;;;;16.01;53.48;98366.28;4934913;29;20241;-62
2023/06/18 01:50:50;;;;;;;9.13;5.90;;;;;;;16.12;54.53;98359.66;4923212;29;20232;-62
2023/06/18 01:53:18;;;;;;;8.63;5.77;;;;;;;16.05;54.60;98363.06;4920538;29;20377;-62
2023/06/18 01:55:46;;;;;;;7.40;6.00;;;;;;;16.01;54.10;98364.44;4919301;29;20657;-62
2023/06/18 01:58:15;;;;;;;7.97;5.87;;;;;;;15.91;54.45;98359.53;4916429;29;20240;-62
2023/06/18 02:00:42;;;;;;;9.73;5.47;;;;;;;15.87;54.94;98352.22;4921128;29;20307;-62
2023/06/18 02:03:10;;;;;;;10.17;6.27;;;;;;;15.86;54.43;98351.38;4933526;29;20290;-62
2023/06/18 02:05:37;;;;;;;8.80;6.13;;;;;;;15.78;55.48;98362.84;4921815;29;20324;-62
2023/06/18 02:08:04;;;;;;;6.77;5.70;;;;;;;15.74;55.06;98368.69;4931365;29;20232;-62
2023/06/18 02:10:30;;;;;;;8.70;6.40;;;;;;;15.67;55.64;98363.38;4924736;29;20227;-62
2023/06/18 02:12:57;;;;;;;7.67;6.40;;;;;;;15.62;55.93;98368.41;4934502;29;20240;-62
2023/06/18 02:15:24;;;;;;;6.83;6.10;;;;;;;15.60;56.80;98365.94;4918667;28;20338;-62
2023/06/18 02:17:50;;;;;;;7.87;6.30;;;;;;;15.56;56.58;98369.94;4919875;29;20221;-62
2023/06/18 02:20:22;;;;;;;11.17;6.63;;;;;;;15.64;56.73;98363.75;4936147;29;20237;-62
2023/06/18 02:22:49;;;;;;;10.03;6.20;;;;;;;15.59;56.87;98364.31;4939763;28;20245;-62
2023/06/18 02:25:19;;;;;;;8.37;5.90;;;;;;;15.54;55.64;98363.25;4936498;28;20231;-62
2023/06/18 02:27:53;;;;;;;6.83;5.73;;;;;;;15.66;56.72;98367.00;4940713;28;20224;-61
2023/06/18 02:30:19;;;;;;;9.30;6.80;;;;;;;15.62;56.17;98365.75;4916563;29;20246;-61
2023/06/18 02:32:46;;;;;;;11.10;6.30;;;;;;;15.60;57.21;98367.78;4918590;29;20247;-61
2023/06/18 02:35:18;;;;;;;9.87;6.60;;;;;;;15.62;56.72;98363.13;4938689;28;20240;-61
2023/06/18 02:37:46;;;;;;;9.53;6.37;;;;;;;15.53;57.33;98366.91;4944075;29;20231;-60
2023/06/18 02:40:18;;;;;;;11.70;6.43;;;;;;;15.48;57.49;98360.38;4919208;29;20240;-61
2023/06/18 02:42:48;;;;;;;11.17;6.17;;;;;;;15.45;57.51;98370.47;4922878;29;20965;-61
2023/06/18 02:45:20;;;;;;;7.43;6.63;;;;;;;15.44;58.42;98371.47;4938890;28;20242;-61
2023/06/18 02:47:47;;;;;;;8.97;6.90;;;;;;;15.44;58.18;98369.66;4941603;29;20246;-61
2023/06/18 02:50:19;;;;;;;7.83;6.43;;;;;;;15.32;57.91;98360.63;4924353;29;20879;-61
2023/06/18 02:52:47;;;;;;;8.63;6.70;;;;;;;15.30;58.21;98355.59;4927647;29;20703;-61
2023/06/18 02:55:18;;;;;;;9.27;6.57;;;;;;;15.39;57.91;98360.69;4922198;29;20244;-61
2023/06/18 02:57:47;;;;;;;7.50;6.70;;;;;;;15.46;59.19;98361.56;4926425;29;20706;-61
2023/06/18 03:00:20;;;;;;;8.87;6.17;;;;;;;15.49;58.03;98362.00;4922175;29;20321;-61
2023/06/18 03:02:46;;;;;;;8.33;6.97;;;;;;;15.42;57.95;98370.84;4924341;29;20231;-61
2023/06/18 03:05:21;;;;;;;9.03;7.23;;;;;;;15.58;56.72;98354.00;4938053;29;20232;-62
2023/06/18 03:07:50;;;;;;;10.33;6.60;;;;;;;15.53;57.22;98359.00;4927902;29;20223;-62
2023/06/18 03:10:19;;;;;;;9.00;6.70;;;;;;;15.57;56.59;98358.44;4940649;28;20236;-62
2023/06/18 03:12:53;;;;;;;9.30;6.80;;;;;;;15.69;57.31;98352.66;4919229;29;20224;-61
2023/06/18 03:15:39;;;;;;;7.43;6.33;;;;;;;15.66;56.58;98356.50;4919178;29;20226;-61
2023/06/18 03:18:06;;;;;;;7.80;6.33;;;;;;;15.68;56.06;98362.38;4921116;29;20331;-61
2023/06/18 03:20:34;;;;;;;8.60;6.50;;;;;;;15.85;55.58;98362.09;4928620;29;20682;-61
2023/06/18 03:23:01;;;;;;;9.80;5.83;;;;;;;15.88;56.38;98357.28;4929314;28;20235;-61
2023/06/18 03:25:28;;;;;;;11.60;7.20;;;;;;;15.94;55.71;98364.41;4924747;29;20604;-61
2023/06/18 03:27:55;;;;;;;8.70;6.43;;;;;;;15.91;55.66;98359.53;4930342;29;20230;-61
2023/06/18 03:33:08;;;;;;;8.03;6.37;;;;;;;15.92;56.50;98368.22;4968597;26;20284;-62
2023/06/18 03:35:36;;;;;;;9.43;6.47;;;;;;;16.03;55.09;98362.44;4977065;28;20227;-61
2023/06/18 03:38:04;;;;;;;8.87;6.70;;;;;;;16.07;56.44;98366.31;4945535;28;20239;-61
2023/06/18 03:40:31;;;;;;;9.70;6.23;;;;;;;16.14;55.56;98362.91;4956114;28;20231;-61
2023/06/18 03:42:58;;;;;;;7.60;6.37;;;;;;;16.14;55.89;98368.16;4969854;28;20874;-61
2023/06/18 03:45:25;;;;;;;7.97;6.30;;;;;;;16.15;55.83;98369.78;4958774;28;20229;-61
2023/06/18 03:47:52;;;;;;;8.17;6.50;;;;;;;16.15;55.95;98368.00;4955589;28;20338;-61
2023/06/18 03:50:21;;;;;;;9.70;6.67;;;;;;;16.12;56.08;98364.91;4978364;28;20238;-61
2023/06/18 03:52:48;;;;;;;7.30;6.50;;;;;;;16.14;56.86;98373.44;4963132;28;20247;-61
2023/06/18 03:55:19;;;;;;;9.13;6.17;;;;;;;16.12;56.86;98375.44;4955538;28;20667;-61
2023/06/18 03:57:46;;;;;;;7.00;5.87;;;;;;;16.17;55.49;98378.31;4960496;28;20226;-61
2023/06/18 04:00:18;;;;;;;8.87;6.20;;;;;;;16.23;55.29;98382.81;4972131;28;20257;-61
2023/06/18 04:02:45;;;;;;;9.70;7.03;;;;;;;16.29;54.75;98395.22;4976609;28;20563;-61
2023/06/18 04:05:36;;;;;;;8.63;6.30;;;;;;;16.26;55.76;98394.78;4972058;28;20229;-61
2023/06/18 04:08:03;;;;;;;7.80;6.13;;;;;;;16.25;55.55;98390.53;4974542;28;20227;-61
2023/06/18 04:10:30;;;;;;;8.97;7.00;;;;;;;16.28;56.74;98384.88;4966999;28;20247;-61
2023/06/18 04:12:57;;;;;;;8.57;6.47;;;;;;;16.21;56.72;98390.91;4956250;28;20228;-61
2023/06/18 04:15:24;;;;;;;9.27;6.30;;;;;;;16.17;56.70;98397.56;4960697;28;20286;-61
2023/06/18 04:17:51;;;;;;;7.60;6.07;;;;;;;16.11;57.37;98389.63;4957993;28;20275;-61
2023/06/18 04:20:18;;;;;;;8.00;6.50;;;;;;;16.05;57.80;98386.75;4953136;28;20232;-61
2023/06/18 04:22:46;;;;;;;8.57;6.30;;;;;;;16.05;59.04;98392.00;4957285;28;20246;-61
2023/06/18 04:25:21;;;;;;;9.27;6.90;;;;;;;16.05;59.42;98384.13;4955642;28;20683;-61
2023/06/18 04:27:51;;;;;;;9.20;6.60;;;;;;;16.06;59.25;98392.84;4957881;28;20236;-61
2023/06/18 04:30:19;;;;;;;8.27;6.67;;;;;;;16.08;59.51;98390.84;4956355;28;20237;-61
2023/06/18 04:32:46;;;;;;;9.83;6.90;;;;;;;16.14;59.16;98386.59;4958550;28;20582;-61
2023/06/18 04:35:20;;;;;;;10.43;6.90;;;;;;;16.19;60.62;98392.09;4954885;28;20228;-61
2023/06/18 04:37:47;;;;;;;10.93;7.30;;;;;;;16.23;60.33;98390.72;4958049;28;20580;-61
2023/06/18 04:40:19;;;;;;;11.07;6.77;;;;;;;16.27;60.68;98389.31;4955236;28;20243;-61
2023/06/18 04:42:47;;;;;;;8.27;6.73;;;;;;;16.33;60.21;98388.56;4974175;28;20233;-61
2023/06/18 04:45:25;;;;;;;8.73;7.27;;;;;;;16.42;60.33;98386.59;4952655;28;20285;-61
2023/06/18 04:47:52;;;;;;;8.10;7.20;;;;;;;16.51;59.67;98374.84;4954531;28;20242;-61
2023/06/18 04:50:18;;;;;;;8.43;6.80;;;;;;;16.58;60.05;98374.91;4952351;28;20243;-61
2023/06/18 04:52:48;;;;;;;12.17;7.43;;;;;;;16.67;60.14;98363.19;4954784;28;20246;-61
2023/06/18 04:55:20;;;;;;;7.67;6.80;;;;;;;16.78;60.50;98361.00;4953190;28;20258;-61
2023/06/18 04:57:47;;;;;;;10.43;7.30;;;;;;;16.87;60.54;98366.88;4975358;28;20554;-61
2023/06/18 05:00:19;;;;;;;6.83;6.13;;;;;;;16.96;60.70;98363.88;4961964;28;20226;-61
2023/06/18 05:02:49;;;;;;;11.57;7.00;;;;;;;17.06;61.00;98352.97;4958905;28;20241;-61
2023/06/18 05:05:19;;;;;;;8.70;6.47;;;;;;;17.17;61.60;98362.13;4963820;28;20234;-61
2023/06/18 05:07:48;;;;;;;8.27;6.87;;;;;;;17.30;61.83;98360.53;4959262;28;21211;-61
2023/06/18 05:10:19;;;;;;;7.77;6.97;;;;;;;17.41;63.26;98359.94;4955934;28;20300;-61
2023/06/18 05:12:45;;;;;;;7.37;6.53;;;;;;;17.48;62.25;98355.47;4959695;28;20229;-61
2023/06/18 05:15:18;;;;;;;9.87;6.80;;;;;;;17.58;60.81;98354.25;4954320;28;20234;-61
2023/06/18 05:17:45;;;;;;;7.83;6.47;;;;;;;17.69;60.81;98361.56;4971941;28;20325;-61
2023/06/18 05:20:37;;;;;;;9.70;6.93;;;;;;;17.81;60.41;98356.47;4971528;28;20237;-61
2023/06/18 05:23:05;;;;;;;7.63;6.10;;;;;;;17.92;58.64;98350.56;4954181;28;20265;-61
2023/06/18 05:25:33;;;;;;;10.07;6.93;;;;;;;18.02;58.29;98347.53;4953211;28;20227;-61
2023/06/18 05:28:00;;;;;;;7.23;6.20;;;;;;;18.13;58.69;98356.66;4970099;28;21107;-62
2023/06/18 05:30:29;;;;;;;9.87;7.20;;;;;;;18.24;59.39;98357.84;4957532;28;20747;-62
2023/06/18 05:32:56;;;;;;;9.00;6.40;;;;;;;18.36;59.29;98356.19;4955116;28;20233;-62
2023/06/18 05:35:22;;;;;;;10.40;6.93;;;;;;;18.47;58.70;98362.69;4957882;28;20239;-62
2023/06/18 05:37:55;;;;;;;7.23;6.33;;;;;;;18.59;59.86;98355.69;4969123;28;20763;-62
2023/06/18 05:40:22;;;;;;;7.73;6.50;;;;;;;18.82;59.53;98358.88;4976809;28;20227;-62
2023/06/18 05:42:49;;;;;;;7.30;6.13;;;;;;;19.18;59.12;98354.81;4956041;28;20243;-62
2023/06/18 05:45:18;;;;;;;9.00;6.73;;;;;;;19.49;59.01;98366.41;4950558;28;20257;-62
2023/06/18 05:47:46;;;;;;;8.87;6.30;;;;;;;19.73;57.17;98366.63;4958315;28;20239;-62
2023/06/18 05:50:25;;;;;;;7.73;6.07;;;;;;;19.94;56.49;98367.31;4955448;28;20307;-62
2023/06/18 05:52:53;;;;;;;8.00;5.93;;;;;;;20.04;55.28;98376.34;4954491;28;20286;-62
2023/06/18 05:55:21;;;;;;;7.07;6.23;;;;;;;20.14;55.19;98381.16;4974028;28;20235;-62
2023/06/18 05:57:50;;;;;;;9.33;6.33;;;;;;;20.25;53.01;98386.75;4953289;28;20250;-62
2023/06/18 06:00:19;;;;;;;9.47;6.13;;;;;;;20.35;53.05;98377.28;4951290;28;20295;-62
2023/06/18 06:02:46;;;;;;;8.27;6.83;;;;;;;20.42;53.23;98379.84;4959460;28;20239;-62
2023/06/18 06:05:21;;;;;;;7.53;6.27;;;;;;;20.58;53.65;98389.06;4951639;28;20585;-62
2023/06/18 06:07:48;;;;;;;8.17;7.00;;;;;;;20.49;52.49;98391.19;4951912;28;20306;-62
2023/06/18 06:10:21;;;;;;;9.10;7.30;;;;;;;20.38;51.67;98397.22;4967493;28;20227;-62
2023/06/18 06:12:49;;;;;;;10.90;8.33;;;;;;;20.38;51.94;98397.22;4972367;28;20242;-62
2023/06/18 06:15:18;;;;;;;10.10;8.60;;;;;;;20.46;51.94;98396.94;4957964;28;20692;-62
2023/06/18 06:17:45;;;;;;;9.80;8.43;;;;;;;20.49;51.60;98407.09;4953380;28;20281;-62
2023/06/18 06:20:36;;;;;;;9.47;8.03;;;;;;;20.68;49.60;98409.75;4972083;28;20234;-62
2023/06/18 06:23:03;;;;;;;10.10;8.03;;;;;;;20.56;50.03;98400.91;4948547;28;20241;-62
2023/06/18 06:25:31;;;;;;;12.57;8.70;;;;;;;20.71;49.86;98411.13;4973632;28;20311;-62
2023/06/18 06:27:58;;;;;;;8.97;7.77;;;;;;;20.82;50.91;98409.63;4950966;28;20238;-62
2023/06/18 06:30:25;;;;;;;9.77;8.03;;;;;;;20.98;49.84;98405.53;4954671;28;20225;-62
2023/06/18 06:32:58;;;;;;;11.43;8.13;;;;;;;21.21;50.49;98402.97;4952221;28;20241;-62
2023/06/18 06:35:24;;;;;;;10.43;8.07;;;;;;;21.30;50.04;98411.41;4956794;28;20238;-62
2023/06/18 06:37:52;;;;;;;11.40;8.30;;;;;;;21.38;48.91;98413.75;4952509;28;20232;-62
2023/06/18 06:40:19;;;;;;;10.73;8.70;;;;;;;21.50;48.83;98412.97;4957087;28;20245;-62
2023/06/18 06:42:47;;;;;;;9.97;7.70;;;;;;;21.68;52.12;98412.13;4959489;28;20247;-62
2023/06/18 06:45:23;;;;;;;10.83;7.60;;;;;;;21.96;50.22;98415.94;4945217;28;20222;-62
2023/06/18 06:48:05;;;;;;;9.57;7.40;;;;;;;22.04;51.03;98417.47;4957379;28;20325;-62
2023/06/18 06:50:51;;;;;;;9.20;7.50;;;;;;;22.24;50.23;98414.44;4949727;28;20600;-62
2023/06/18 06:53:21;;;;;;;9.50;7.20;;;;;;;22.47;49.93;98426.13;4952941;28;20623;-62
2023/06/18 06:55:48;;;;;;;9.30;7.83;;;;;;;22.61;47.08;98430.16;4957992;28;20235;-62
2023/06/18 06:58:18;;;;;;;8.13;7.30;;;;;;;22.72;47.98;98425.84;4954200;28;20236;-62
2023/06/18 07:00:45;;;;;;;10.00;7.60;;;;;;;22.79;47.67;98431.84;4953937;28;20681;-62
2023/06/18 07:03:11;;;;;;;8.63;7.67;;;;;;;22.92;47.05;98427.31;4948780;28;20230;-62
2023/06/18 07:05:38;;;;;;;10.77;8.20;;;;;;;23.04;45.42;98438.72;4969815;28;20237;-62
2023/06/18 07:08:05;;;;;;;10.50;8.13;;;;;;;22.78;45.70;98438.22;4974314;28;20235;-62
2023/06/18 07:10:33;;;;;;;10.43;9.03;;;;;;;22.65;45.97;98441.13;4972773;28;20243;-62
2023/06/18 07:12:59;;;;;;;11.57;8.53;;;;;;;22.67;45.78;98450.50;4970257;28;20324;-62
2023/06/18 07:15:27;;;;;;;12.57;8.67;;;;;;;22.90;46.15;98438.16;4974907;28;20235;-62
2023/06/18 07:17:54;;;;;;;11.80;9.30;;;;;;;22.91;45.56;98442.44;4971666;28;20237;-62
2023/06/18 07:20:21;;;;;;;10.07;8.87;;;;;;;22.85;44.28;98440.72;4975942;28;20237;-62
2023/06/18 07:22:47;;;;;;;12.43;9.23;;;;;;;22.91;43.49;98441.66;4972670;28;20321;-62
2023/06/18 07:25:18;;;;;;;10.20;9.20;;;;;;;22.80;43.20;98445.94;4969148;28;20264;-62
2023/06/18 07:27:45;;;;;;;11.30;9.47;;;;;;;23.03;43.17;98453.06;4972209;28;20661;-62
2023/06/18 07:30:38;;;;;;;10.90;9.73;;;;;;;23.12;42.97;98446.34;4970226;28;20244;-62
2023/06/18 07:33:04;;;;;;;10.10;8.90;;;;;;;23.23;43.35;98446.56;4971754;28;20307;-62
2023/06/18 07:35:31;;;;;;;11.83;9.20;;;;;;;23.27;42.88;98440.50;4977200;28;20229;-62
2023/06/18 07:37:57;;;;;;;9.53;8.37;;;;;;;23.24;41.73;98442.84;4972057;28;20628;-62
2023/06/18 07:40:25;;;;;;;9.60;8.67;;;;;;;23.33;41.67;98449.38;4975229;28;20299;-62
2023/06/18 07:42:52;;;;;;;11.90;8.93;;;;;;;23.51;42.87;98447.56;4952686;28;20249;-62
2023/06/18 07:45:18;;;;;;;10.47;8.30;;;;;;;23.51;39.82;98442.22;4973045;28;20233;-62
2023/06/18 07:47:46;;;;;;;12.30;9.03;;;;;;;23.52;39.88;98443.84;4970304;28;20316;-62
2023/06/18 07:50:18;;;;;;;13.53;9.07;;;;;;;23.41;40.35;98442.88;4971102;28;20319;-62
2023/06/18 07:52:45;;;;;;;11.53;9.03;;;;;;;23.58;40.58;98437.56;4976882;28;20232;-62
2023/06/18 07:55:36;;;;;;;11.07;9.07;;;;;;;23.73;40.71;98443.13;4969832;28;20374;-62
2023/06/18 07:58:03;;;;;;;12.00;9.10;;;;;;;23.72;40.73;98448.72;4960394;28;20233;-62
2023/06/18 08:00:30;;;;;;;9.90;8.90;;;;;;;23.73;41.34;98445.81;4973994;28;20234;-62
2023/06/18 08:02:58;;;;;;;10.90;8.90;;;;;;;23.63;42.07;98444.84;4966439;28;20696;-62
2023/06/18 08:05:25;;;;;;;12.17;9.13;;;;;;;23.86;41.37;98451.88;4972433;28;20755;-62
2023/06/18 08:07:51;;;;;;;10.30;9.30;;;;;;;23.98;41.16;98449.13;4977899;28;20247;-62
2023/06/18 08:10:18;;;;;;;10.10;9.10;;;;;;;23.90;40.70;98442.34;4976871;28;20240;-62
2023/06/18 08:12:45;;;;;;;12.90;9.20;;;;;;;23.89;40.32;98444.19;4978753;28;20249;-62
2023/06/18 08:15:15;;;;;;;10.20;9.13;;;;;;;23.95;40.25;98437.09;4973511;28;20275;-62
2023/06/18 08:17:42;;;;;;;10.20;8.97;;;;;;;23.99;40.85;98440.09;4974558;28;20249;-62
2023/06/18 08:20:11;;;;;;;9.57;8.57;;;;;;;24.16;40.06;98432.09;4971095;28;20235;-62
2023/06/18 08:22:37;;;;;;;11.73;8.27;;;;;;;24.31;39.75;98428.81;4974351;28;20293;-62
2023/06/18 08:25:06;;;;;;;9.13;8.23;;;;;;;24.32;39.05;98417.09;4972455;28;20232;-62
2023/06/18 08:27:33;;;;;;;11.07;8.97;;;;;;;24.31;39.75;98429.66;4979018;28;20734;-62
2023/06/18 08:29:59;;;;;;;9.37;8.17;;;;;;;24.32;39.30;98414.44;4971745;28;20639;-62
2023/06/18 08:32:26;;;;;;;9.50;8.60;;;;;;;24.58;39.41;98422.78;4972997;28;20233;-62
2023/06/18 08:34:53;;;;;;;10.03;8.60;;;;;;;24.84;39.41;98418.56;4972906;28;20243;-62
2023/06/18 08:37:20;;;;;;;14.73;8.70;;;;;;;24.97;39.78;98417.38;4977156;28;20311;-62
2023/06/18 08:39:47;;;;;;;10.02;8.85;;;;;;;25.09;38.19;98409.22;4978785;28;20235;-62
2023/06/18 08:42:19;;;;;;;12.43;8.60;;;;;;;25.10;38.50;98413.50;4972410;28;20587;-62
2023/06/18 08:44:47;;;;;;;9.20;8.27;;;;;;;25.26;38.34;98414.47;4975818;28;20763;-62
2023/06/18 08:47:16;;;;;;;9.00;8.10;;;;;;;25.35;39.12;98420.97;4973195;28;20237;-62
2023/06/18 08:49:43;;;;;;;8.57;7.70;;;;;;;25.40;37.66;98406.88;4958365;28;20811;-62
2023/06/18 08:52:11;;;;;;;10.38;8.40;;;;;;;25.37;38.27;98409.22;4970730;28;20229;-62
2023/06/18 08:54:39;;;;;;;10.95;8.30;;;;;;;25.40;37.78;98406.88;4956991;28;20227;-62
2023/06/18 08:57:13;;;;;;;11.20;8.97;;;;;;;25.54;38.03;98407.28;4973389;28;20244;-62
2023/06/18 08:59:43;;;;;;;8.45;7.60;;;;;;;25.80;38.98;98410.16;4976761;28;20235;-62
2023/06/18 09:02:11;;;;;;;8.70;7.87;;;;;;;25.91;38.37;98403.81;4974263;28;20242;-62
2023/06/18 09:04:38;;;;;;;9.18;8.27;;;;;;;25.98;40.39;98400.91;4958809;28;20234;-62
2023/06/18 09:07:07;;;;;;;10.73;9.00;;;;;;;25.94;39.56;98394.47;4974100;28;20236;-62
2023/06/18 09:09:33;;;;;;;9.53;8.00;;;;;;;26.05;38.35;98396.13;4976523;28;20240;-62
2023/06/18 09:12:01;;;;;;;8.98;8.10;;;;;;;26.10;37.68;98392.66;4974179;28;20225;-62
2023/06/18 09:14:28;;;;;;;13.40;8.70;;;;;;;25.93;38.25;98390.16;4975190;28;20262;-62
2023/06/18 09:16:56;;;;;;;9.32;8.40;;;;;;;25.97;38.45;98391.25;4967987;28;20723;-62
2023/06/18 09:19:24;;;;;;;9.93;7.73;;;;;;;26.22;38.15;98387.97;4974525;28;20240;-62
2023/06/18 09:21:52;;;;;;;8.63;7.80;;;;;;;26.08;38.18;98394.78;4974833;28;20239;-62
2023/06/18 09:24:20;;;;;;;12.25;8.07;;;;;;;26.18;37.70;98389.53;4973022;28;20243;-62
2023/06/18 09:26:48;;;;;;;8.97;7.70;;;;;;;26.19;38.75;98385.81;4976022;28;20247;-62
2023/06/18 09:29:16;;;;;;;7.37;6.67;;;;;;;26.34;37.57;98382.41;4975543;28;20217;-62
2023/06/18 09:31:45;;;;;;;8.65;7.55;;;;;;;26.49;36.88;98378.97;4975509;28;20320;-62
2023/06/18 09:34:16;;;;;;;8.75;7.85;;;;;;;26.57;35.24;98375.00;4974360;28;20910;-62
2023/06/18 09:36:44;;;;;;;9.38;7.90;;;;;;;26.44;36.32;98370.16;4977753;28;20235;-62
2023/06/18 09:39:18;;;;;;;14.02;7.18;;;;;;;26.32;34.93;98367.66;4974878;28;20232;-62
2023/06/18 09:41:46;;;;;;;8.27;7.25;;;;;;;26.56;34.06;98368.03;4970433;28;20332;-62
2023/06/18 09:44:16;;;;;;;8.80;7.67;;;;;;;26.64;36.83;98366.72;4970618;28;20760;-62
2023/06/18 09:46:43;;;;;;;8.43;6.70;;;;;;;26.64;31.39;98359.50;4975508;28;20235;-62
2023/06/18 09:49:11;;;;;;;7.88;7.05;;;;;;;26.73;32.88;98372.38;4972446;28;20260;-62
2023/06/18 09:51:39;;;;;;;8.30;7.10;;;;;;;26.72;32.28;98371.56;4955490;28;20229;-62
2023/06/18 09:54:06;;;;;;;9.10;6.93;;;;;;;26.82;31.54;98376.16;4956706;28;20688;-62
2023/06/18 09:56:33;;;;;;;11.13;7.05;;;;;;;26.89;30.74;98371.38;4974549;28;20236;-63
2023/06/18 09:59:01;;;;;;;9.27;6.50;;;;;;;26.88;31.37;98366.28;4970511;28;20232;-63
2023/06/18 10:01:29;;;;;;;8.80;7.30;;;;;;;27.01;32.43;98373.00;4971864;28;20696;-62
2023/06/18 10:03:56;;;;;;;10.25;7.75;;;;;;;27.09;32.62;98367.13;4971623;28;20232;-62
2023/06/18 10:06:24;;;;;;;8.38;7.45;;;;;;;27.10;32.68;98374.88;4978254;28;20226;-62
2023/06/18 10:08:53;;;;;;;11.43;7.23;;;;;;;27.29;32.69;98376.25;4959866;28;20715;-62
2023/06/18 10:11:21;;;;;;;9.05;7.63;;;;;;;27.20;33.39;98374.09;4971728;28;20618;-62
2023/06/18 10:13:49;;;;;;;8.45;7.63;;;;;;;27.26;33.07;98367.69;4974894;28;20304;-62
2023/06/18 10:16:17;;;;;;;9.75;7.40;;;;;;;27.40;32.63;98375.19;4970012;28;20672;-62
2023/06/18 10:18:58;;;;;;;9.10;7.00;;;;;;;27.49;31.47;98354.84;4975708;28;20237;-62
2023/06/18 10:21:25;;;;;;;9.95;6.97;;;;;;;27.57;30.52;98358.03;4972800;28;20242;-62
2023/06/18 10:23:56;;;;;;;8.73;7.03;;;;;;;27.59;30.50;98361.25;4957186;28;20273;-62
2023/06/18 10:26:25;;;;;;;8.57;7.15;;;;;;;27.48;31.87;98360.44;4973529;28;20238;-62
2023/06/18 10:28:52;;;;;;;11.25;7.60;;;;;;;27.62;30.13;98360.72;4976751;28;20244;-62
2023/06/18 10:31:20;;;;;;;8.27;6.70;;;;;;;27.69;30.84;98359.38;4970807;28;20249;-62
2023/06/18 10:33:49;;;;;;;7.72;6.95;;;;;;;27.78;29.68;98356.16;4973708;28;20310;-62
2023/06/18 10:36:16;;;;;;;8.98;6.70;;;;;;;27.98;30.31;98357.97;4972557;28;20235;-62
2023/06/18 10:38:44;;;;;;;8.70;7.30;;;;;;;28.02;29.71;98339.47;4976045;28;20231;-62
2023/06/18 10:41:12;;;;;;;8.18;6.60;;;;;;;27.96;30.05;98342.16;4971990;28;20585;-63
2023/06/18 10:43:42;;;;;;;7.60;6.88;;;;;;;28.10;30.16;98350.44;4973417;28;20224;-62
2023/06/18 10:46:10;;;;;;;7.47;6.70;;;;;;;28.26;29.82;98342.38;4970297;28;20629;-62
2023/06/18 10:48:37;;;;;;;7.97;7.07;;;;;;;28.27;28.85;98339.38;4973483;28;20230;-62
2023/06/18 10:51:18;;;;;;;11.35;7.10;;;;;;;28.20;29.37;98335.41;4970343;28;20247;-62
2023/06/18 10:53:46;;;;;;;7.30;6.63;;;;;;;28.37;28.24;98333.19;4975659;28;20248;-62
2023/06/18 10:56:15;;;;;;;8.00;6.65;;;;;;;28.59;27.91;98340.06;4952100;28;20238;-62
2023/06/18 10:58:43;;;;;;;7.38;6.68;;;;;;;28.68;27.18;98334.91;4977142;28;20236;-62
2023/06/18 11:01:25;;;;;;;6.72;6.13;;;;;;;28.72;27.52;98327.91;4971159;28;20231;-62
2023/06/18 11:04:02;;;;;;;9.80;7.07;;;;;;;28.67;28.18;98320.66;4970501;28;20245;-62
2023/06/18 11:06:30;;;;;;;7.50;6.80;;;;;;;28.84;28.75;98325.72;4974321;28;20220;-63
2023/06/18 11:08:57;;;;;;;7.18;6.47;;;;;;;28.96;27.96;98322.66;4973740;28;20228;-62
2023/06/18 11:11:25;;;;;;;8.30;5.57;;;;;;;28.80;26.65;98319.28;4974331;28;20230;-62
2023/06/18 11:13:54;;;;;;;10.40;6.03;;;;;;;28.89;26.72;98316.81;4975451;28;20229;-62
2023/06/18 11:16:21;;;;;;;6.35;5.65;;;;;;;29.06;25.40;98312.94;4973390;28;20828;-62
2023/06/18 11:18:48;;;;;;;7.75;5.68;;;;;;;29.34;26.06;98316.72;4975541;28;20234;-62
2023/06/18 11:21:16;;;;;;;7.20;6.47;;;;;;;29.52;25.23;98315.25;4970034;28;20240;-62
2023/06/18 11:23:45;;;;;;;8.60;6.40;;;;;;;29.49;26.45;98312.31;4972167;28;20220;-62
2023/06/18 11:26:15;;;;;;;9.23;6.35;;;;;;;29.46;26.38;98313.69;4972388;28;20239;-61
2023/06/18 11:28:42;;;;;;;8.77;5.95;;;;;;;29.73;25.96;98310.47;4976197;28;20755;-62
2023/06/18 11:31:09;;;;;;;7.07;6.38;;;;;;;29.87;26.43;98307.88;4969533;28;20232;-62
2023/06/18 11:33:36;;;;;;;7.55;5.90;;;;;;;30.12;26.05;98297.16;4952981;28;20221;-62
2023/06/18 11:36:11;;;;;;;9.82;6.55;;;;;;;30.07;26.23;98300.69;4951530;28;20225;-62
2023/06/18 11:38:39;;;;;;;6.78;5.82;;;;;;;30.33;25.29;98293.09;4954228;28;20234;-62
2023/06/18 11:41:07;;;;;;;8.52;6.10;;;;;;;30.34;25.82;98283.91;4970956;28;20244;-62
2023/06/18 11:43:45;;;;;;;7.00;6.10;;;;;;;30.42;25.92;98285.19;4954874;28;20226;-62